sensor_id;sensor_type;location;lat;lon;timestamp;temperature;humidity
64817;DHT22;53289;45.602;11.904;2023-02-01T00:02:01;-0.70;77.90
64817;DHT22;53289;45.602;11.904;2023-02-01T00:04:27;-0.70;77.80
64817;DHT22;53289;45.602;11.904;2023-02-01T00:06:53;-0.70;77.80
64817;DHT22;53289;45.602;11.904;2023-02-01T00:09:19;-0.70;78.00
64817;DHT22;53289;45.602;11.904;2023-02-01T00:11:45;-0.60;77.60
64817;DHT22;53289;45.602;11.904;2023-02-01T00:14:11;-0.60;78.00
64817;DHT22;53289;45.602;11.904;2023-02-01T00:16:37;-0.50;77.80
64817;DHT22;53289;45.602;11.904;2023-02-01T00:19:10;-0.50;77.80
64817;DHT22;53289;45.602;11.904;2023-02-01T00:21:36;-0.60;77.60
64817;DHT22;53289;45.602;11.904;2023-02-01T00:24:02;-0.60;77.70
64817;DHT22;53289;45.602;11.904;2023-02-01T00:26:35;-0.60;77.60
64817;DHT22;53289;45.602;11.904;2023-02-01T00:29:02;-0.60;77.60
64817;DHT22;53289;45.602;11.904;2023-02-01T00:31:28;-0.70;77.60
64817;DHT22;53289;45.602;11.904;2023-02-01T00:33:53;-0.70;77.50
64817;DHT22;53289;45.602;11.904;2023-02-01T00:36:19;-0.70;77.50
64817;DHT22;53289;45.602;11.904;2023-02-01T00:38:45;-0.60;77.60
64817;DHT22;53289;45.602;11.904;2023-02-01T00:41:12;-0.60;77.60
64817;DHT22;53289;45.602;11.904;2023-02-01T00:43:39;-0.50;78.00
64817;DHT22;53289;45.602;11.904;2023-02-01T00:46:05;-0.50;77.70
64817;DHT22;53289;45.602;11.904;2023-02-01T00:48:31;-0.40;77.80
64817;DHT22;53289;45.602;11.904;2023-02-01T00:51:14;-0.40;77.50
64817;DHT22;53289;45.602;11.904;2023-02-01T00:53:41;-0.40;77.60
64817;DHT22;53289;45.602;11.904;2023-02-01T00:56:08;-0.40;77.50
64817;DHT22;53289;45.602;11.904;2023-02-01T00:58:34;-0.40;78.00
64817;DHT22;53289;45.602;11.904;2023-02-01T01:03:29;-0.50;77.50
64817;DHT22;53289;45.602;11.904;2023-02-01T01:06:00;-0.50;77.50
64817;DHT22;53289;45.602;11.904;2023-02-01T01:08:26;-0.60;77.60
64817;DHT22;53289;45.602;11.904;2023-02-01T01:10:53;-0.60;77.70
64817;DHT22;53289;45.602;11.904;2023-02-01T01:13:19;-0.60;77.80
64817;DHT22;53289;45.602;11.904;2023-02-01T01:15:45;-0.70;77.60
64817;DHT22;53289;45.602;11.904;2023-02-01T01:18:11;-0.80;77.40
64817;DHT22;53289;45.602;11.904;2023-02-01T01:20:39;-0.80;77.50
64817;DHT22;53289;45.602;11.904;2023-02-01T01:23:07;-0.80;77.60
64817;DHT22;53289;45.602;11.904;2023-02-01T01:25:38;-0.90;77.80
64817;DHT22;53289;45.602;11.904;2023-02-01T01:28:05;-0.80;78.00
64817;DHT22;53289;45.602;11.904;2023-02-01T01:30:31;-0.80;78.50
64817;DHT22;53289;45.602;11.904;2023-02-01T01:32:57;-0.80;78.30
64817;DHT22;53289;45.602;11.904;2023-02-01T01:35:23;-0.80;78.20
64817;DHT22;53289;45.602;11.904;2023-02-01T01:37:49;-0.80;78.40
64817;DHT22;53289;45.602;11.904;2023-02-01T01:40:14;-0.80;78.10
64817;DHT22;53289;45.602;11.904;2023-02-01T01:42:42;-0.90;78.30
64817;DHT22;53289;45.602;11.904;2023-02-01T01:45:25;-0.90;78.00
64817;DHT22;53289;45.602;11.904;2023-02-01T01:47:56;-0.90;78.00
64817;DHT22;53289;45.602;11.904;2023-02-01T01:50:37;-1.00;78.90
64817;DHT22;53289;45.602;11.904;2023-02-01T01:53:06;-1.00;78.80
64817;DHT22;53289;45.602;11.904;2023-02-01T01:55:36;-1.00;78.50
64817;DHT22;53289;45.602;11.904;2023-02-01T01:58:08;-1.00;78.30
64817;DHT22;53289;45.602;11.904;2023-02-01T02:00:35;-1.10;78.30
64817;DHT22;53289;45.602;11.904;2023-02-01T02:03:15;-1.10;78.50
64817;DHT22;53289;45.602;11.904;2023-02-01T02:05:43;-1.10;78.30
64817;DHT22;53289;45.602;11.904;2023-02-01T02:08:09;-1.10;79.20
64817;DHT22;53289;45.602;11.904;2023-02-01T02:10:36;-1.20;79.40
64817;DHT22;53289;45.602;11.904;2023-02-01T02:13:21;-1.10;79.70
64817;DHT22;53289;45.602;11.904;2023-02-01T02:24:37;-1.10;79.20
64817;DHT22;53289;45.602;11.904;2023-02-01T02:40:35;-1.20;78.40
64817;DHT22;53289;45.602;11.904;2023-02-01T02:43:22;-1.20;78.30
64817;DHT22;53289;45.602;11.904;2023-02-01T02:46:11;-1.10;78.30
64817;DHT22;53289;45.602;11.904;2023-02-01T02:52:12;-0.90;78.30
64817;DHT22;53289;45.602;11.904;2023-02-01T02:54:59;-0.90;78.40
64817;DHT22;53289;45.602;11.904;2023-02-01T02:57:31;-0.90;78.40
64817;DHT22;53289;45.602;11.904;2023-02-01T03:00:19;-0.90;78.30
64817;DHT22;53289;45.602;11.904;2023-02-01T03:03:04;-1.00;78.10
64817;DHT22;53289;45.602;11.904;2023-02-01T03:05:50;-1.00;78.20
64817;DHT22;53289;45.602;11.904;2023-02-01T03:08:21;-1.10;78.20
64817;DHT22;53289;45.602;11.904;2023-02-01T03:11:07;-1.10;78.10
64817;DHT22;53289;45.602;11.904;2023-02-01T03:21:21;-1.30;77.50
64817;DHT22;53289;45.602;11.904;2023-02-01T03:23:49;-1.30;77.80
64817;DHT22;53289;45.602;11.904;2023-02-01T03:26:17;-1.30;77.90
64817;DHT22;53289;45.602;11.904;2023-02-01T03:29:48;-1.30;78.20
64817;DHT22;53289;45.602;11.904;2023-02-01T03:31:53;-1.30;77.80
64817;DHT22;53289;45.602;11.904;2023-02-01T03:34:19;-1.50;77.70
64817;DHT22;53289;45.602;11.904;2023-02-01T03:36:58;-1.50;77.80
64817;DHT22;53289;45.602;11.904;2023-02-01T03:39:35;-1.50;77.90
64817;DHT22;53289;45.602;11.904;2023-02-01T03:42:12;-1.50;78.10
64817;DHT22;53289;45.602;11.904;2023-02-01T03:47:29;-1.60;77.90
64817;DHT22;53289;45.602;11.904;2023-02-01T03:50:00;-1.60;78.10
64817;DHT22;53289;45.602;11.904;2023-02-01T03:52:38;-1.60;78.30
64817;DHT22;53289;45.602;11.904;2023-02-01T03:55:05;-1.60;78.10
64817;DHT22;53289;45.602;11.904;2023-02-01T03:57:34;-1.70;78.10
64817;DHT22;53289;45.602;11.904;2023-02-01T04:00:20;-1.70;78.30
64817;DHT22;53289;45.602;11.904;2023-02-01T04:02:47;-1.70;78.00
64817;DHT22;53289;45.602;11.904;2023-02-01T04:05:14;-1.70;78.30
64817;DHT22;53289;45.602;11.904;2023-02-01T04:07:40;-1.70;78.40
64817;DHT22;53289;45.602;11.904;2023-02-01T04:10:06;-1.80;78.10
64817;DHT22;53289;45.602;11.904;2023-02-01T04:12:32;-1.80;78.20
64817;DHT22;53289;45.602;11.904;2023-02-01T04:14:58;-1.80;78.10
64817;DHT22;53289;45.602;11.904;2023-02-01T04:17:24;-1.80;78.10
64817;DHT22;53289;45.602;11.904;2023-02-01T04:19:50;-1.90;78.30
64817;DHT22;53289;45.602;11.904;2023-02-01T04:22:16;-1.90;78.60
64817;DHT22;53289;45.602;11.904;2023-02-01T04:24:42;-1.90;78.90
64817;DHT22;53289;45.602;11.904;2023-02-01T04:27:08;-2.00;78.50
64817;DHT22;53289;45.602;11.904;2023-02-01T04:29:34;-2.00;78.70
64817;DHT22;53289;45.602;11.904;2023-02-01T04:32:00;-2.00;78.40
64817;DHT22;53289;45.602;11.904;2023-02-01T04:34:26;-2.10;78.60
64817;DHT22;53289;45.602;11.904;2023-02-01T04:36:52;-2.10;78.60
64817;DHT22;53289;45.602;11.904;2023-02-01T04:39:18;-2.10;78.70
64817;DHT22;53289;45.602;11.904;2023-02-01T04:41:44;-2.20;78.50
64817;DHT22;53289;45.602;11.904;2023-02-01T04:44:17;-2.10;78.60
64817;DHT22;53289;45.602;11.904;2023-02-01T04:46:45;-2.10;78.20
64817;DHT22;53289;45.602;11.904;2023-02-01T04:49:12;-2.20;78.50
64817;DHT22;53289;45.602;11.904;2023-02-01T04:51:38;-2.20;78.60
64817;DHT22;53289;45.602;11.904;2023-02-01T04:54:04;-2.20;78.40
64817;DHT22;53289;45.602;11.904;2023-02-01T04:56:31;-2.30;78.50
64817;DHT22;53289;45.602;11.904;2023-02-01T04:58:57;-2.30;78.80
64817;DHT22;53289;45.602;11.904;2023-02-01T05:01:23;-2.20;78.90
64817;DHT22;53289;45.602;11.904;2023-02-01T05:03:50;-2.20;78.50
64817;DHT22;53289;45.602;11.904;2023-02-01T05:06:17;-2.20;78.40
64817;DHT22;53289;45.602;11.904;2023-02-01T05:08:43;-2.20;78.50
64817;DHT22;53289;45.602;11.904;2023-02-01T05:11:09;-2.20;79.00
64817;DHT22;53289;45.602;11.904;2023-02-01T05:13:59;-2.10;79.00
64817;DHT22;53289;45.602;11.904;2023-02-01T05:16:25;-2.10;78.40
64817;DHT22;53289;45.602;11.904;2023-02-01T05:18:51;-2.00;78.60
64817;DHT22;53289;45.602;11.904;2023-02-01T05:21:17;-2.00;78.60
64817;DHT22;53289;45.602;11.904;2023-02-01T05:23:43;-2.00;78.60
64817;DHT22;53289;45.602;11.904;2023-02-01T05:26:28;-1.90;78.80
64817;DHT22;53289;45.602;11.904;2023-02-01T05:28:53;-1.80;78.60
64817;DHT22;53289;45.602;11.904;2023-02-01T05:31:20;-1.80;78.70
64817;DHT22;53289;45.602;11.904;2023-02-01T05:33:46;-1.70;78.90
64817;DHT22;53289;45.602;11.904;2023-02-01T05:36:12;-1.60;79.30
64817;DHT22;53289;45.602;11.904;2023-02-01T05:38:38;-1.50;79.30
64817;DHT22;53289;45.602;11.904;2023-02-01T05:41:03;-1.40;79.60
64817;DHT22;53289;45.602;11.904;2023-02-01T05:43:30;-1.30;79.00
64817;DHT22;53289;45.602;11.904;2023-02-01T05:45:55;-1.20;78.70
64817;DHT22;53289;45.602;11.904;2023-02-01T05:48:21;-1.20;78.80
64817;DHT22;53289;45.602;11.904;2023-02-01T05:50:47;-1.10;78.20
64817;DHT22;53289;45.602;11.904;2023-02-01T05:53:13;-1.00;78.10
64817;DHT22;53289;45.602;11.904;2023-02-01T05:55:39;-1.00;77.90
64817;DHT22;53289;45.602;11.904;2023-02-01T05:58:06;-0.90;77.90
64817;DHT22;53289;45.602;11.904;2023-02-01T06:00:31;-0.80;78.30
64817;DHT22;53289;45.602;11.904;2023-02-01T06:02:58;-0.70;78.20
64817;DHT22;53289;45.602;11.904;2023-02-01T06:05:24;-0.70;78.50
64817;DHT22;53289;45.602;11.904;2023-02-01T06:07:50;-0.60;78.10
64817;DHT22;53289;45.602;11.904;2023-02-01T06:10:17;-0.50;77.90
64817;DHT22;53289;45.602;11.904;2023-02-01T06:12:43;-0.40;77.90
64817;DHT22;53289;45.602;11.904;2023-02-01T06:15:13;-0.40;78.00
64817;DHT22;53289;45.602;11.904;2023-02-01T06:17:43;-0.30;78.10
64817;DHT22;53289;45.602;11.904;2023-02-01T06:20:10;-0.20;78.40
64817;DHT22;53289;45.602;11.904;2023-02-01T06:22:36;-0.20;78.30
64817;DHT22;53289;45.602;11.904;2023-02-01T06:25:04;-0.20;77.70
64817;DHT22;53289;45.602;11.904;2023-02-01T06:27:31;-0.20;77.60
64817;DHT22;53289;45.602;11.904;2023-02-01T06:29:57;-0.10;77.90
64817;DHT22;53289;45.602;11.904;2023-02-01T06:32:23;-0.10;77.50
64817;DHT22;53289;45.602;11.904;2023-02-01T06:34:49;0.00;77.80
64817;DHT22;53289;45.602;11.904;2023-02-01T06:37:19;0.00;78.10
64817;DHT22;53289;45.602;11.904;2023-02-01T06:39:44;0.00;77.70
64817;DHT22;53289;45.602;11.904;2023-02-01T06:42:10;0.00;77.50
64817;DHT22;53289;45.602;11.904;2023-02-01T06:44:36;0.00;77.30
64817;DHT22;53289;45.602;11.904;2023-02-01T06:47:05;0.00;77.40
64817;DHT22;53289;45.602;11.904;2023-02-01T06:49:31;0.00;77.50
64817;DHT22;53289;45.602;11.904;2023-02-01T06:51:57;0.10;77.30
64817;DHT22;53289;45.602;11.904;2023-02-01T06:54:27;0.10;77.40
64817;DHT22;53289;45.602;11.904;2023-02-01T06:56:52;0.10;77.60
64817;DHT22;53289;45.602;11.904;2023-02-01T06:59:18;0.10;77.60
64817;DHT22;53289;45.602;11.904;2023-02-01T07:01:44;0.10;77.60
64817;DHT22;53289;45.602;11.904;2023-02-01T07:04:11;0.20;77.70
64817;DHT22;53289;45.602;11.904;2023-02-01T07:06:37;0.20;77.70
64817;DHT22;53289;45.602;11.904;2023-02-01T07:09:03;0.30;77.80
64817;DHT22;53289;45.602;11.904;2023-02-01T07:11:29;0.40;77.70
64817;DHT22;53289;45.602;11.904;2023-02-01T07:13:56;0.40;77.50
64817;DHT22;53289;45.602;11.904;2023-02-01T07:16:22;0.50;77.40
64817;DHT22;53289;45.602;11.904;2023-02-01T07:18:49;0.60;77.10
64817;DHT22;53289;45.602;11.904;2023-02-01T07:21:15;0.60;77.20
64817;DHT22;53289;45.602;11.904;2023-02-01T07:23:41;0.70;77.20
64817;DHT22;53289;45.602;11.904;2023-02-01T07:26:10;0.80;76.90
64817;DHT22;53289;45.602;11.904;2023-02-01T07:28:37;0.80;76.70
64817;DHT22;53289;45.602;11.904;2023-02-01T07:31:11;0.80;76.60
64817;DHT22;53289;45.602;11.904;2023-02-01T07:33:37;0.90;76.50
64817;DHT22;53289;45.602;11.904;2023-02-01T07:36:05;0.90;76.50
64817;DHT22;53289;45.602;11.904;2023-02-01T07:38:33;1.00;76.40
64817;DHT22;53289;45.602;11.904;2023-02-01T07:41:02;1.00;76.30
64817;DHT22;53289;45.602;11.904;2023-02-01T07:43:28;1.00;76.20
64817;DHT22;53289;45.602;11.904;2023-02-01T07:45:55;1.10;76.20
64817;DHT22;53289;45.602;11.904;2023-02-01T07:48:22;1.10;76.30
64817;DHT22;53289;45.602;11.904;2023-02-01T07:50:52;1.20;76.30
64817;DHT22;53289;45.602;11.904;2023-02-01T07:53:21;1.30;76.40
64817;DHT22;53289;45.602;11.904;2023-02-01T07:55:47;1.30;76.30
64817;DHT22;53289;45.602;11.904;2023-02-01T07:58:13;1.40;76.20
64817;DHT22;53289;45.602;11.904;2023-02-01T08:00:39;1.50;76.10
64817;DHT22;53289;45.602;11.904;2023-02-01T08:03:23;1.60;76.10
64817;DHT22;53289;45.602;11.904;2023-02-01T08:05:54;1.60;76.10
64817;DHT22;53289;45.602;11.904;2023-02-01T08:08:20;1.70;75.90
64817;DHT22;53289;45.602;11.904;2023-02-01T08:10:46;1.90;75.70
64817;DHT22;53289;45.602;11.904;2023-02-01T08:13:11;1.90;75.50
64817;DHT22;53289;45.602;11.904;2023-02-01T08:15:37;2.00;75.30
64817;DHT22;53289;45.602;11.904;2023-02-01T08:18:03;2.10;75.10
64817;DHT22;53289;45.602;11.904;2023-02-01T08:20:30;2.30;74.90
64817;DHT22;53289;45.602;11.904;2023-02-01T08:22:56;2.40;74.70
64817;DHT22;53289;45.602;11.904;2023-02-01T08:25:23;2.50;74.70
64817;DHT22;53289;45.602;11.904;2023-02-01T08:27:49;2.60;74.50
64817;DHT22;53289;45.602;11.904;2023-02-01T08:30:16;2.60;74.50
64817;DHT22;53289;45.602;11.904;2023-02-01T08:32:42;2.70;74.50
64817;DHT22;53289;45.602;11.904;2023-02-01T08:35:08;2.70;74.30
64817;DHT22;53289;45.602;11.904;2023-02-01T08:37:34;2.80;74.20
64817;DHT22;53289;45.602;11.904;2023-02-01T08:40:00;2.80;74.10
64817;DHT22;53289;45.602;11.904;2023-02-01T08:42:26;2.80;74.00
64817;DHT22;53289;45.602;11.904;2023-02-01T08:45:10;2.90;74.00
64817;DHT22;53289;45.602;11.904;2023-02-01T08:47:36;3.00;73.90
64817;DHT22;53289;45.602;11.904;2023-02-01T08:50:02;3.00;73.80
64817;DHT22;53289;45.602;11.904;2023-02-01T08:52:27;3.20;73.60
64817;DHT22;53289;45.602;11.904;2023-02-01T08:54:53;3.30;73.40
64817;DHT22;53289;45.602;11.904;2023-02-01T08:57:19;3.40;73.20
64817;DHT22;53289;45.602;11.904;2023-02-01T08:59:45;3.60;73.20
64817;DHT22;53289;45.602;11.904;2023-02-01T09:02:15;3.80;72.70
64817;DHT22;53289;45.602;11.904;2023-02-01T09:04:42;4.00;72.60
64817;DHT22;53289;45.602;11.904;2023-02-01T09:07:11;4.10;72.30
64817;DHT22;53289;45.602;11.904;2023-02-01T09:09:38;4.40;72.00
64817;DHT22;53289;45.602;11.904;2023-02-01T09:12:05;4.50;71.70
64817;DHT22;53289;45.602;11.904;2023-02-01T09:14:30;4.70;71.70
64817;DHT22;53289;45.602;11.904;2023-02-01T09:16:56;4.90;71.00
64817;DHT22;53289;45.602;11.904;2023-02-01T09:19:22;5.00;70.80
64817;DHT22;53289;45.602;11.904;2023-02-01T09:21:48;5.20;70.70
64817;DHT22;53289;45.602;11.904;2023-02-01T09:24:14;5.40;70.10
64817;DHT22;53289;45.602;11.904;2023-02-01T09:26:39;5.60;70.00
64817;DHT22;53289;45.602;11.904;2023-02-01T09:29:06;5.70;69.80
64817;DHT22;53289;45.602;11.904;2023-02-01T09:31:38;5.90;69.80
64817;DHT22;53289;45.602;11.904;2023-02-01T09:35:06;6.20;69.10
64817;DHT22;53289;45.602;11.904;2023-02-01T09:37:32;6.40;68.60
64817;DHT22;53289;45.602;11.904;2023-02-01T09:39:58;6.50;68.00
64817;DHT22;53289;45.602;11.904;2023-02-01T09:46:06;6.80;67.90
64817;DHT22;53289;45.602;11.904;2023-02-01T09:48:40;7.00;66.90
64817;DHT22;53289;45.602;11.904;2023-02-01T09:51:15;7.00;67.10
64817;DHT22;53289;45.602;11.904;2023-02-01T09:53:44;7.20;67.40
64817;DHT22;53289;45.602;11.904;2023-02-01T09:56:24;7.40;67.30
64817;DHT22;53289;45.602;11.904;2023-02-01T10:01:28;7.80;66.10
64817;DHT22;53289;45.602;11.904;2023-02-01T10:04:02;7.90;65.80
64817;DHT22;53289;45.602;11.904;2023-02-01T10:06:57;7.90;65.40
64817;DHT22;53289;45.602;11.904;2023-02-01T10:09:42;8.00;65.40
64817;DHT22;53289;45.602;11.904;2023-02-01T10:15:09;8.40;64.80
64817;DHT22;53289;45.602;11.904;2023-02-01T10:18:12;8.60;64.70
64817;DHT22;53289;45.602;11.904;2023-02-01T10:21:07;8.80;64.40
64817;DHT22;53289;45.602;11.904;2023-02-01T10:26:48;9.10;62.90
64817;DHT22;53289;45.602;11.904;2023-02-01T10:29:22;9.20;63.10
64817;DHT22;53289;45.602;11.904;2023-02-01T10:31:50;9.30;63.20
64817;DHT22;53289;45.602;11.904;2023-02-01T10:34:27;9.40;63.30
64817;DHT22;53289;45.602;11.904;2023-02-01T10:36:56;9.60;63.40
64817;DHT22;53289;45.602;11.904;2023-02-01T10:39:23;9.80;63.00
64817;DHT22;53289;45.602;11.904;2023-02-01T10:41:49;10.00;62.50
64817;DHT22;53289;45.602;11.904;2023-02-01T10:44:18;10.20;62.40
64817;DHT22;53289;45.602;11.904;2023-02-01T10:46:45;10.30;62.90
64817;DHT22;53289;45.602;11.904;2023-02-01T10:49:20;10.60;62.00
64817;DHT22;53289;45.602;11.904;2023-02-01T10:51:59;10.70;61.90
64817;DHT22;53289;45.602;11.904;2023-02-01T10:54:38;10.80;60.20
64817;DHT22;53289;45.602;11.904;2023-02-01T10:57:30;10.90;58.20
64817;DHT22;53289;45.602;11.904;2023-02-01T10:59:57;11.10;60.10
64817;DHT22;53289;45.602;11.904;2023-02-01T11:02:33;11.20;58.70
64817;DHT22;53289;45.602;11.904;2023-02-01T11:05:05;11.30;59.80
64817;DHT22;53289;45.602;11.904;2023-02-01T11:07:35;11.60;58.80
64817;DHT22;53289;45.602;11.904;2023-02-01T11:10:02;11.90;58.50
64817;DHT22;53289;45.602;11.904;2023-02-01T11:15:20;12.60;56.90
64817;DHT22;53289;45.602;11.904;2023-02-01T11:17:49;12.90;55.00
64817;DHT22;53289;45.602;11.904;2023-02-01T11:20:40;13.10;55.40
64817;DHT22;53289;45.602;11.904;2023-02-01T11:23:17;13.20;54.70
64817;DHT22;53289;45.602;11.904;2023-02-01T11:25:57;13.30;54.80
64817;DHT22;53289;45.602;11.904;2023-02-01T11:28:30;13.40;54.10
64817;DHT22;53289;45.602;11.904;2023-02-01T11:31:00;13.50;52.80
64817;DHT22;53289;45.602;11.904;2023-02-01T11:33:33;13.50;53.40
64817;DHT22;53289;45.602;11.904;2023-02-01T11:36:22;13.30;54.20
64817;DHT22;53289;45.602;11.904;2023-02-01T11:44:37;14.00;51.90
64817;DHT22;53289;45.602;11.904;2023-02-01T11:47:21;14.00;52.00
64817;DHT22;53289;45.602;11.904;2023-02-01T11:49:49;13.90;52.70
64817;DHT22;53289;45.602;11.904;2023-02-01T12:04:10;14.20;51.90
64817;DHT22;53289;45.602;11.904;2023-02-01T12:06:54;14.20;51.60
64817;DHT22;53289;45.602;11.904;2023-02-01T12:17:38;13.90;52.40
64817;DHT22;53289;45.602;11.904;2023-02-01T12:23:10;13.80;52.40
64817;DHT22;53289;45.602;11.904;2023-02-01T12:26:44;14.00;52.60
64817;DHT22;53289;45.602;11.904;2023-02-01T12:40:07;15.30;48.80
64817;DHT22;53289;45.602;11.904;2023-02-01T12:43:07;15.40;49.00
64817;DHT22;53289;45.602;11.904;2023-02-01T12:45:56;15.60;48.20
64817;DHT22;53289;45.602;11.904;2023-02-01T12:48:37;15.80;47.50
64817;DHT22;53289;45.602;11.904;2023-02-01T12:51:14;15.90;48.40
64817;DHT22;53289;45.602;11.904;2023-02-01T12:53:57;15.90;46.50
64817;DHT22;53289;45.602;11.904;2023-02-01T12:59:02;16.10;45.70
64817;DHT22;53289;45.602;11.904;2023-02-01T13:01:35;16.10;46.30
64817;DHT22;53289;45.602;11.904;2023-02-01T13:06:46;16.10;46.30
64817;DHT22;53289;45.602;11.904;2023-02-01T13:09:21;16.10;46.40
64817;DHT22;53289;45.602;11.904;2023-02-01T13:11:51;16.10;46.10
64817;DHT22;53289;45.602;11.904;2023-02-01T13:17:15;16.20;45.10
64817;DHT22;53289;45.602;11.904;2023-02-01T13:22:12;16.00;46.30
64817;DHT22;53289;45.602;11.904;2023-02-01T13:27:14;15.90;46.80
64817;DHT22;53289;45.602;11.904;2023-02-01T13:29:55;15.90;46.40
64817;DHT22;53289;45.602;11.904;2023-02-01T13:38:31;15.10;47.60
64817;DHT22;53289;45.602;11.904;2023-02-01T13:43:33;15.30;48.00
64817;DHT22;53289;45.602;11.904;2023-02-01T13:46:08;15.50;46.40
64817;DHT22;53289;45.602;11.904;2023-02-01T13:51:12;15.90;45.20
64817;DHT22;53289;45.602;11.904;2023-02-01T13:53:45;15.90;45.20
64817;DHT22;53289;45.602;11.904;2023-02-01T13:56:17;16.10;44.70
64817;DHT22;53289;45.602;11.904;2023-02-01T13:58:45;16.20;45.10
64817;DHT22;53289;45.602;11.904;2023-02-01T14:19:30;16.00;43.80
64817;DHT22;53289;45.602;11.904;2023-02-01T14:22:01;15.90;44.60
64817;DHT22;53289;45.602;11.904;2023-02-01T14:24:51;15.80;45.20
64817;DHT22;53289;45.602;11.904;2023-02-01T14:27:26;15.80;45.10
64817;DHT22;53289;45.602;11.904;2023-02-01T14:29:57;15.80;44.80
64817;DHT22;53289;45.602;11.904;2023-02-01T14:34:55;15.90;44.70
64817;DHT22;53289;45.602;11.904;2023-02-01T14:42:44;15.90;43.70
64817;DHT22;53289;45.602;11.904;2023-02-01T15:00:56;14.90;45.50
64817;DHT22;53289;45.602;11.904;2023-02-01T15:08:48;14.40;46.50
64817;DHT22;53289;45.602;11.904;2023-02-01T15:11:15;14.10;47.00
64817;DHT22;53289;45.602;11.904;2023-02-01T15:13:48;13.80;47.60
64817;DHT22;53289;45.602;11.904;2023-02-01T15:16:16;13.60;48.20
64817;DHT22;53289;45.602;11.904;2023-02-01T15:18:42;13.40;48.60
64817;DHT22;53289;45.602;11.904;2023-02-01T15:21:17;13.20;48.90
64817;DHT22;53289;45.602;11.904;2023-02-01T15:23:43;13.00;49.30
64817;DHT22;53289;45.602;11.904;2023-02-01T15:26:28;12.80;49.90
64817;DHT22;53289;45.602;11.904;2023-02-01T15:28:55;12.60;50.20
64817;DHT22;53289;45.602;11.904;2023-02-01T15:31:45;12.30;50.70
64817;DHT22;53289;45.602;11.904;2023-02-01T15:34:12;12.10;51.20
64817;DHT22;53289;45.602;11.904;2023-02-01T15:36:39;12.00;51.40
64817;DHT22;53289;45.602;11.904;2023-02-01T15:39:21;11.90;51.70
64817;DHT22;53289;45.602;11.904;2023-02-01T15:42:10;11.70;52.10
64817;DHT22;53289;45.602;11.904;2023-02-01T15:44:43;11.50;52.30
64817;DHT22;53289;45.602;11.904;2023-02-01T15:47:23;11.30;52.80
64817;DHT22;53289;45.602;11.904;2023-02-01T15:49:57;11.00;53.10
64817;DHT22;53289;45.602;11.904;2023-02-01T15:52:29;10.80;53.70
64817;DHT22;53289;45.602;11.904;2023-02-01T15:54:59;10.60;54.10
64817;DHT22;53289;45.602;11.904;2023-02-01T15:57:33;10.30;54.60
64817;DHT22;53289;45.602;11.904;2023-02-01T16:00:29;10.10;55.20
64817;DHT22;53289;45.602;11.904;2023-02-01T16:03:01;9.90;55.80
64817;DHT22;53289;45.602;11.904;2023-02-01T16:10:31;9.30;57.00
64817;DHT22;53289;45.602;11.904;2023-02-01T16:12:57;9.10;57.40
64817;DHT22;53289;45.602;11.904;2023-02-01T16:15:28;8.90;57.80
64817;DHT22;53289;45.602;11.904;2023-02-01T16:17:55;8.80;58.10
64817;DHT22;53289;45.602;11.904;2023-02-01T16:20:21;8.70;58.40
64817;DHT22;53289;45.602;11.904;2023-02-01T16:22:47;8.50;58.60
64817;DHT22;53289;45.602;11.904;2023-02-01T16:25:13;8.30;59.00
64817;DHT22;53289;45.602;11.904;2023-02-01T16:27:39;8.10;59.40
64817;DHT22;53289;45.602;11.904;2023-02-01T16:30:05;7.90;59.60
64817;DHT22;53289;45.602;11.904;2023-02-01T16:32:36;7.80;60.00
64817;DHT22;53289;45.602;11.904;2023-02-01T16:35:25;7.60;60.40
64817;DHT22;53289;45.602;11.904;2023-02-01T16:37:51;7.30;60.80
64817;DHT22;53289;45.602;11.904;2023-02-01T16:40:18;7.20;61.10
64817;DHT22;53289;45.602;11.904;2023-02-01T16:42:46;7.10;61.80
64817;DHT22;53289;45.602;11.904;2023-02-01T16:45:13;6.90;62.00
64817;DHT22;53289;45.602;11.904;2023-02-01T16:47:41;6.80;62.10
64817;DHT22;53289;45.602;11.904;2023-02-01T16:50:16;6.70;62.60
64817;DHT22;53289;45.602;11.904;2023-02-01T16:52:42;6.50;62.90
64817;DHT22;53289;45.602;11.904;2023-02-01T16:55:12;6.40;63.30
64817;DHT22;53289;45.602;11.904;2023-02-01T16:57:39;6.30;63.80
64817;DHT22;53289;45.602;11.904;2023-02-01T17:00:05;6.20;63.40
64817;DHT22;53289;45.602;11.904;2023-02-01T17:02:31;6.10;63.40
64817;DHT22;53289;45.602;11.904;2023-02-01T17:04:57;6.10;63.60
64817;DHT22;53289;45.602;11.904;2023-02-01T17:07:23;6.00;64.50
64817;DHT22;53289;45.602;11.904;2023-02-01T17:09:49;5.90;64.70
64817;DHT22;53289;45.602;11.904;2023-02-01T17:12:23;5.80;65.10
64817;DHT22;53289;45.602;11.904;2023-02-01T17:14:50;5.60;64.90
64817;DHT22;53289;45.602;11.904;2023-02-01T17:17:18;5.50;65.40
64817;DHT22;53289;45.602;11.904;2023-02-01T17:19:49;5.40;65.40
64817;DHT22;53289;45.602;11.904;2023-02-01T17:22:18;5.30;65.60
64817;DHT22;53289;45.602;11.904;2023-02-01T17:24:44;5.20;65.90
64817;DHT22;53289;45.602;11.904;2023-02-01T17:27:10;5.10;66.20
64817;DHT22;53289;45.602;11.904;2023-02-01T17:29:36;4.90;66.30
64817;DHT22;53289;45.602;11.904;2023-02-01T17:32:02;4.80;66.30
64817;DHT22;53289;45.602;11.904;2023-02-01T17:34:28;4.70;66.90
64817;DHT22;53289;45.602;11.904;2023-02-01T17:36:54;4.60;66.70
64817;DHT22;53289;45.602;11.904;2023-02-01T17:39:20;4.60;66.30
64817;DHT22;53289;45.602;11.904;2023-02-01T17:42:05;4.70;67.00
64817;DHT22;53289;45.602;11.904;2023-02-01T17:44:34;4.60;67.00
64817;DHT22;53289;45.602;11.904;2023-02-01T17:46:59;4.50;67.20
64817;DHT22;53289;45.602;11.904;2023-02-01T17:49:25;4.40;67.20
64817;DHT22;53289;45.602;11.904;2023-02-01T17:51:54;4.30;68.00
64817;DHT22;53289;45.602;11.904;2023-02-01T17:54:20;4.20;68.00
64817;DHT22;53289;45.602;11.904;2023-02-01T17:56:46;4.00;68.60
64817;DHT22;53289;45.602;11.904;2023-02-01T17:59:14;3.90;67.90
64817;DHT22;53289;45.602;11.904;2023-02-01T18:01:40;3.90;68.60
64817;DHT22;53289;45.602;11.904;2023-02-01T18:04:16;3.90;68.40
64817;DHT22;53289;45.602;11.904;2023-02-01T18:06:43;3.80;68.60
64817;DHT22;53289;45.602;11.904;2023-02-01T18:09:09;3.70;68.30
64817;DHT22;53289;45.602;11.904;2023-02-01T18:11:35;3.70;68.20
64817;DHT22;53289;45.602;11.904;2023-02-01T18:14:02;3.70;68.80
64817;DHT22;53289;45.602;11.904;2023-02-01T18:16:30;3.70;68.40
64817;DHT22;53289;45.602;11.904;2023-02-01T18:18:57;3.70;68.90
64817;DHT22;53289;45.602;11.904;2023-02-01T18:21:33;3.60;69.00
64817;DHT22;53289;45.602;11.904;2023-02-01T18:24:00;3.50;68.80
64817;DHT22;53289;45.602;11.904;2023-02-01T18:26:26;3.40;69.20
64817;DHT22;53289;45.602;11.904;2023-02-01T18:28:53;3.40;69.60
64817;DHT22;53289;45.602;11.904;2023-02-01T18:31:22;3.20;69.80
64817;DHT22;53289;45.602;11.904;2023-02-01T18:33:49;3.10;70.30